createdAt,value
2024-05-09T00:00:22.514Z,85.8550
2024-05-09T00:01:18.931Z,86.0992
2024-05-09T00:02:19.790Z,86.2497
2024-05-09T00:03:22.305Z,86.4483
2024-05-09T00:04:22.234Z,86.6438
2024-05-09T00:05:24.431Z,86.7307
2024-05-09T00:06:24.375Z,86.6477
2024-05-09T00:07:26.423Z,86.4737
2024-05-09T00:08:28.827Z,86.3474
2024-05-09T00:09:31.022Z,86.3493
2024-05-09T00:10:36.970Z,86.3837
2024-05-09T00:11:34.145Z,86.4656
2024-05-09T00:12:36.326Z,86.5480
2024-05-09T00:13:38.506Z,86.5917
2024-05-09T00:14:40.748Z,86.5658
2024-05-09T00:15:42.905Z,86.5242
2024-05-09T00:16:45.086Z,86.5056
2024-05-09T00:17:47.417Z,86.5391
2024-05-09T00:18:47.467Z,86.6060
2024-05-09T00:19:48.991Z,86.6570
2024-05-09T00:20:49.789Z,86.6732
2024-05-09T00:21:49.574Z,86.6495
2024-05-09T00:22:51.776Z,86.5784
2024-05-09T00:23:52.351Z,86.4858
2024-05-09T00:24:53.238Z,86.3273
2024-05-09T00:25:55.427Z,86.2401
2024-05-09T00:26:57.629Z,86.1792
2024-05-09T00:27:59.820Z,86.1527
2024-05-09T00:29:02.219Z,86.1476
2024-05-09T00:30:04.207Z,86.1294
2024-05-09T00:31:04.175Z,86.1137
2024-05-09T00:32:06.414Z,86.0995
2024-05-09T00:33:07.859Z,86.1066
2024-05-09T00:34:07.094Z,86.1552
2024-05-09T00:35:07.055Z,86.2161
2024-05-09T00:36:09.346Z,86.2422
2024-05-09T00:37:11.553Z,86.2638
2024-05-09T00:38:13.780Z,86.2519
2024-05-09T00:39:15.987Z,86.2200
2024-05-09T00:40:26.568Z,86.2337
2024-05-09T00:41:19.928Z,86.3117
2024-05-09T00:42:19.844Z,86.3754
2024-05-09T00:43:22.070Z,86.4514
2024-05-09T00:44:24.518Z,86.5139
2024-05-09T00:45:24.503Z,86.5688
2024-05-09T00:46:24.487Z,86.6273
2024-05-09T00:47:26.886Z,86.7048
2024-05-09T00:48:27.188Z,86.7990
2024-05-09T00:49:28.520Z,86.8958
2024-05-09T00:50:35.230Z,86.9963
2024-05-09T00:51:29.411Z,87.1147
2024-05-09T00:52:31.612Z,87.2228
2024-05-09T00:53:33.950Z,87.3235
2024-05-09T00:54:33.938Z,87.4257
2024-05-09T00:55:36.150Z,87.5139
2024-05-09T00:56:36.283Z,87.5890
2024-05-09T00:57:38.580Z,87.6875
2024-05-09T00:58:40.800Z,87.7770
2024-05-09T00:59:43.018Z,87.8225
2024-05-09T01:00:45.422Z,87.8890
2024-05-09T01:01:48.407Z,87.9843
2024-05-09T01:02:48.357Z,88.0410
2024-05-09T01:03:51.672Z,88.0688
2024-05-09T01:04:51.996Z,88.1131
2024-05-09T01:05:52.032Z,88.2161
2024-05-09T01:06:52.006Z,88.3301
2024-05-09T01:07:54.158Z,88.4497
2024-05-09T01:08:56.437Z,88.5559
2024-05-09T01:09:58.776Z,88.6457
2024-05-09T01:11:01.386Z,88.7303
2024-05-09T01:12:02.523Z,88.8135
2024-05-09T01:13:02.868Z,88.8861
2024-05-09T01:14:05.202Z,88.9349
2024-05-09T01:15:07.521Z,88.9784
2024-05-09T01:16:12.821Z,88.9884
2024-05-09T01:17:11.307Z,89.0154
2024-05-09T01:18:12.477Z,89.0422
2024-05-09T01:19:13.789Z,89.0728
2024-05-09T01:20:20.052Z,89.1033
2024-05-09T01:21:14.968Z,89.1396
2024-05-09T01:22:14.927Z,89.1481
2024-05-09T01:23:17.224Z,89.1423
2024-05-09T01:24:17.926Z,89.1234
2024-05-09T01:25:20.265Z,89.1009
2024-05-09T01:26:22.387Z,89.0674
2024-05-09T01:27:24.724Z,89.0390
2024-05-09T01:28:26.792Z,89.0094
2024-05-09T01:29:29.166Z,88.9655
2024-05-09T01:30:35.111Z,88.9180
2024-05-09T01:31:32.222Z,88.8805
2024-05-09T01:32:34.649Z,88.8533
2024-05-09T01:33:34.724Z,88.8216
2024-05-09T01:34:34.622Z,88.7888
2024-05-09T01:35:36.962Z,88.7414
2024-05-09T01:36:36.766Z,88.7024
2024-05-09T01:37:39.857Z,88.6774
2024-05-09T01:38:39.624Z,88.6675
2024-05-09T01:39:41.704Z,88.6572
2024-05-09T01:40:43.937Z,88.6425
2024-05-09T01:41:46.181Z,88.6066
2024-05-09T01:42:48.429Z,88.5723
2024-05-09T01:43:50.604Z,88.5422
2024-05-09T01:44:52.760Z,88.5151
2024-05-09T01:45:54.926Z,88.4841
2024-05-09T01:46:57.247Z,88.4336
2024-05-09T01:47:59.741Z,88.3925
2024-05-09T01:48:59.833Z,88.3676
2024-05-09T01:49:59.745Z,88.3329
2024-05-09T01:51:01.949Z,88.3007
2024-05-09T01:52:01.936Z,88.2738
2024-05-09T01:53:04.161Z,88.2325
2024-05-09T01:54:06.464Z,88.1757
2024-05-09T01:55:08.554Z,88.1412
2024-05-09T01:56:10.795Z,88.1065
2024-05-09T01:57:12.847Z,88.0786
2024-05-09T01:58:15.110Z,88.0369
2024-05-09T01:59:17.252Z,88.0031
2024-05-09T02:00:30.157Z,87.9734
2024-05-09T02:01:20.303Z,87.9435
2024-05-09T02:02:22.627Z,87.9087
2024-05-09T02:03:25.038Z,87.8730
2024-05-09T02:04:25.051Z,87.8258
2024-05-09T02:05:25.029Z,87.7822
2024-05-09T02:06:27.099Z,87.7469
2024-05-09T02:07:29.190Z,87.7159
2024-05-09T02:08:31.490Z,87.6718
2024-05-09T02:09:31.533Z,87.6304
2024-05-09T02:10:33.875Z,87.6019
2024-05-09T02:11:33.996Z,87.5705
2024-05-09T02:12:33.877Z,87.5429
2024-05-09T02:13:33.740Z,87.5203
2024-05-09T02:14:36.054Z,87.4986
2024-05-09T02:15:37.022Z,87.4661
2024-05-09T02:16:39.374Z,87.4346
2024-05-09T02:17:40.511Z,87.4189
2024-05-09T02:18:40.586Z,87.4069
2024-05-09T02:19:41.430Z,87.3872
2024-05-09T02:20:44.148Z,87.3605
2024-05-09T02:21:44.121Z,87.3429
2024-05-09T02:22:46.386Z,87.3275
2024-05-09T02:23:46.372Z,87.3062
2024-05-09T02:24:48.540Z,87.2774
2024-05-09T02:25:50.738Z,87.2682
2024-05-09T02:26:52.888Z,87.2644
2024-05-09T02:27:55.056Z,87.2563
2024-05-09T02:28:57.323Z,87.2412
2024-05-09T02:29:59.492Z,87.2266
2024-05-09T02:31:01.698Z,87.2174
2024-05-09T02:32:02.977Z,87.2103
2024-05-09T02:33:03.463Z,87.1954
2024-05-09T02:34:03.420Z,87.1779
2024-05-09T02:35:03.423Z,87.1720
2024-05-09T02:36:03.365Z,87.1683
2024-05-09T02:37:05.734Z,87.1665
2024-05-09T02:38:06.692Z,87.1631
2024-05-09T02:39:06.756Z,87.1563
2024-05-09T02:40:14.273Z,87.1498
2024-05-09T02:41:10.083Z,87.1423
2024-05-09T02:42:12.333Z,87.1280
2024-05-09T02:43:14.566Z,87.1137
2024-05-09T02:44:16.896Z,87.1171
2024-05-09T02:45:16.807Z,87.1041
2024-05-09T02:46:19.172Z,87.1069
2024-05-09T02:47:21.757Z,87.0956
2024-05-09T02:48:21.821Z,87.0883
2024-05-09T02:49:24.221Z,87.0772
2024-05-09T02:50:33.060Z,87.0634
2024-05-09T02:51:26.870Z,87.0388
2024-05-09T02:52:27.293Z,87.0175
2024-05-09T02:53:27.157Z,87.0073
2024-05-09T02:54:29.323Z,86.9978
2024-05-09T02:55:31.605Z,86.9867
2024-05-09T02:56:34.045Z,86.9838
2024-05-09T02:57:36.174Z,86.9728
2024-05-09T02:58:38.440Z,86.9504
2024-05-09T02:59:40.730Z,86.9531
2024-05-09T03:00:42.831Z,86.9562
2024-05-09T03:01:42.492Z,86.9492
2024-05-09T03:02:42.735Z,86.9463
2024-05-09T03:03:42.730Z,86.9403
2024-05-09T03:04:42.759Z,86.9300
2024-05-09T03:05:45.394Z,86.9160
2024-05-09T03:06:45.457Z,86.8958
2024-05-09T03:07:46.409Z,86.8927
2024-05-09T03:08:46.270Z,86.8917
2024-05-09T03:09:48.389Z,86.9033
2024-05-09T03:10:50.584Z,86.9030
2024-05-09T03:11:52.981Z,86.9016
2024-05-09T03:12:52.928Z,86.9049
2024-05-09T03:13:55.099Z,86.9194
2024-05-09T03:14:57.200Z,86.9194
2024-05-09T03:15:59.537Z,86.9172
2024-05-09T03:17:01.915Z,86.9082
2024-05-09T03:18:02.142Z,86.8970
2024-05-09T03:19:02.465Z,86.8973
2024-05-09T03:20:05.110Z,86.8981
2024-05-09T03:21:04.355Z,86.9166
2024-05-09T03:22:06.660Z,86.9296
2024-05-09T03:23:06.795Z,86.9160
2024-05-09T03:24:09.167Z,86.9122
2024-05-09T03:25:11.351Z,86.9090
2024-05-09T03:26:13.665Z,86.9087
2024-05-09T03:27:15.908Z,86.9066
2024-05-09T03:28:15.763Z,86.8902
2024-05-09T03:29:18.078Z,86.8922
2024-05-09T03:30:29.289Z,86.9013
2024-05-09T03:31:18.947Z,86.8994
2024-05-09T03:32:21.488Z,86.8480
2024-05-09T03:33:21.835Z,86.8138
2024-05-09T03:34:22.058Z,86.8104
2024-05-09T03:35:25.005Z,86.7862
2024-05-09T03:36:24.993Z,86.7822
2024-05-09T03:37:25.464Z,86.7752
2024-05-09T03:38:26.242Z,86.7707
2024-05-09T03:39:28.530Z,86.7784
2024-05-09T03:40:31.401Z,86.7626
2024-05-09T03:41:31.480Z,86.7455
2024-05-09T03:42:31.932Z,86.7354
2024-05-09T03:43:31.822Z,86.7101
2024-05-09T03:44:34.217Z,86.7064
2024-05-09T03:45:34.191Z,86.7092
2024-05-09T03:46:36.417Z,86.6976
2024-05-09T03:47:38.848Z,86.6848
2024-05-09T03:48:38.968Z,86.6641
2024-05-09T03:49:41.206Z,86.6535
2024-05-09T03:50:43.610Z,86.6475
2024-05-09T03:51:44.082Z,86.6311
2024-05-09T03:52:44.024Z,86.6305
2024-05-09T03:53:44.273Z,86.6270
2024-05-09T03:54:46.434Z,86.6118
2024-05-09T03:55:48.620Z,86.5996
2024-05-09T03:56:50.938Z,86.5952
2024-05-09T03:57:53.271Z,86.6051
2024-05-09T03:58:55.592Z,86.6104
2024-05-09T03:59:57.744Z,86.5891
2024-05-09T04:01:00.963Z,86.5811
2024-05-09T04:02:01.995Z,86.5805
2024-05-09T04:03:02.330Z,86.5874
2024-05-09T04:04:02.510Z,86.5862
2024-05-09T04:05:04.893Z,86.5708
2024-05-09T04:06:05.411Z,86.5718
2024-05-09T04:07:05.273Z,86.5823
2024-05-09T04:08:07.710Z,86.5874
2024-05-09T04:09:07.639Z,86.5832
2024-05-09T04:10:16.994Z,86.5899
2024-05-09T04:11:10.992Z,86.6020
2024-05-09T04:12:12.023Z,86.5990
2024-05-09T04:13:13.015Z,86.5960
2024-05-09T04:14:15.293Z,86.5977
2024-05-09T04:15:15.580Z,86.5790
2024-05-09T04:16:17.755Z,86.5755
2024-05-09T04:17:20.595Z,86.5578
2024-05-09T04:18:22.442Z,86.5619
2024-05-09T04:19:24.640Z,86.5605
2024-05-09T04:20:33.909Z,86.5178
2024-05-09T04:21:25.563Z,86.5330
2024-05-09T04:22:27.718Z,86.5304
2024-05-09T04:23:30.009Z,86.5039
2024-05-09T04:24:29.998Z,86.4890
2024-05-09T04:25:32.275Z,86.4785
2024-05-09T04:26:34.627Z,86.4814
2024-05-09T04:27:37.832Z,86.4801
2024-05-09T04:28:37.707Z,86.5010
2024-05-09T04:29:40.028Z,86.5145
2024-05-09T04:30:42.684Z,86.5193
2024-05-09T04:31:43.022Z,86.5267
2024-05-09T04:32:45.427Z,86.5164
2024-05-09T04:33:46.732Z,86.5036
2024-05-09T04:34:46.752Z,86.4996
2024-05-09T04:35:48.999Z,86.4978
2024-05-09T04:36:51.180Z,86.4808
2024-05-09T04:37:51.469Z,86.4614
2024-05-09T04:38:53.677Z,86.4483
2024-05-09T04:39:55.920Z,86.4515
2024-05-09T04:40:58.103Z,86.4615
2024-05-09T04:42:00.293Z,86.4479
2024-05-09T04:43:02.382Z,86.4255
2024-05-09T04:44:04.548Z,86.4058
2024-05-09T04:45:06.692Z,86.3918
2024-05-09T04:46:08.902Z,86.3751
2024-05-09T04:47:11.986Z,86.3750
2024-05-09T04:48:12.177Z,86.3697
2024-05-09T04:49:12.106Z,86.3670
2024-05-09T04:50:21.182Z,86.3605
2024-05-09T04:51:15.381Z,86.3680
2024-05-09T04:52:18.376Z,86.3627
2024-05-09T04:53:18.428Z,86.3392
2024-05-09T04:54:26.209Z,86.3251
2024-05-09T04:55:19.449Z,86.3354
2024-05-09T04:56:21.644Z,86.3201
2024-05-09T04:57:23.880Z,86.3085
2024-05-09T04:58:25.980Z,86.2896
2024-05-09T04:59:28.328Z,86.3059
2024-05-09T05:00:35.035Z,86.3126
2024-05-09T05:01:29.292Z,86.2959
2024-05-09T05:02:31.616Z,86.2949
2024-05-09T05:03:34.036Z,86.2900
2024-05-09T05:04:33.998Z,86.2827
2024-05-09T05:05:36.266Z,86.2736
2024-05-09T05:06:38.544Z,86.2521
2024-05-09T05:07:40.648Z,86.2294
2024-05-09T05:08:42.863Z,86.2287
2024-05-09T05:09:45.024Z,86.2236
2024-05-09T05:10:47.945Z,86.2116
2024-05-09T05:11:49.572Z,86.2052
2024-05-09T05:12:51.521Z,86.2051
2024-05-09T05:13:52.475Z,86.2007
2024-05-09T05:14:54.957Z,86.1863
2024-05-09T05:15:54.860Z,86.1841
2024-05-09T05:16:55.772Z,86.1880
2024-05-09T05:17:55.884Z,86.1976
2024-05-09T05:18:56.130Z,86.2055
2024-05-09T05:19:57.250Z,86.2107
2024-05-09T05:20:57.397Z,86.2212
2024-05-09T05:21:57.448Z,86.2331
2024-05-09T05:22:58.256Z,86.2450
2024-05-09T05:24:00.560Z,86.2536
2024-05-09T05:25:02.877Z,86.2508
2024-05-09T05:26:03.305Z,86.2627
2024-05-09T05:27:04.240Z,86.2621
2024-05-09T05:28:06.568Z,86.2576
2024-05-09T05:29:08.905Z,86.2498
2024-05-09T05:30:17.628Z,86.2344
2024-05-09T05:31:13.097Z,86.2264
2024-05-09T05:32:13.194Z,86.2248
2024-05-09T05:33:13.582Z,86.2099
2024-05-09T05:34:14.123Z,86.1743
2024-05-09T05:35:16.401Z,86.1395
2024-05-09T05:36:16.346Z,86.1294
2024-05-09T05:37:18.505Z,86.1112
2024-05-09T05:38:24.827Z,86.0938
2024-05-09T05:39:21.866Z,86.0850
2024-05-09T05:40:32.356Z,86.0817
2024-05-09T05:41:25.452Z,86.0927
2024-05-09T05:42:25.753Z,86.1098
2024-05-09T05:43:28.035Z,86.1320
2024-05-09T05:44:30.432Z,86.1489
2024-05-09T05:45:30.358Z,86.1476
2024-05-09T05:46:32.683Z,86.1330
2024-05-09T05:47:35.218Z,86.1331
2024-05-09T05:48:35.331Z,86.1317
2024-05-09T05:49:37.820Z,86.1119
2024-05-09T05:50:38.779Z,86.0760
2024-05-09T05:51:38.954Z,86.0339
2024-05-09T05:52:41.245Z,85.9858
2024-05-09T05:53:42.288Z,85.9384
2024-05-09T05:54:42.282Z,85.9058
2024-05-09T05:55:44.718Z,85.8801
2024-05-09T05:56:44.996Z,85.8710
2024-05-09T05:57:45.135Z,85.8596
2024-05-09T05:58:47.378Z,85.8458
2024-05-09T05:59:49.677Z,85.8276
2024-05-09T06:00:52.413Z,85.8019
2024-05-09T06:01:52.365Z,85.7909
2024-05-09T06:02:52.462Z,85.7850
2024-05-09T06:03:53.484Z,85.7702
2024-05-09T06:04:54.046Z,85.7429
2024-05-09T06:05:54.120Z,85.7320
2024-05-09T06:06:56.353Z,85.7236
2024-05-09T06:07:58.698Z,85.7210
2024-05-09T06:08:58.982Z,85.7217
2024-05-09T06:10:01.280Z,85.7329
2024-05-09T06:11:03.751Z,85.7532
2024-05-09T06:12:03.831Z,85.7670
2024-05-09T06:13:05.365Z,85.7742
2024-05-09T06:14:05.282Z,85.7799
2024-05-09T06:15:07.649Z,85.7818
2024-05-09T06:16:09.959Z,85.7787
2024-05-09T06:17:12.399Z,85.7875
2024-05-09T06:18:13.014Z,85.7994
2024-05-09T06:19:13.218Z,85.7984
2024-05-09T06:20:20.560Z,85.7811
2024-05-09T06:21:15.482Z,85.7618
2024-05-09T06:22:15.960Z,85.7449
2024-05-09T06:23:18.214Z,85.7201
2024-05-09T06:24:18.598Z,85.7070
2024-05-09T06:25:20.839Z,85.6957
2024-05-09T06:26:23.223Z,85.6875
2024-05-09T06:27:23.963Z,85.6761
2024-05-09T06:28:23.788Z,85.6897
2024-05-09T06:29:26.144Z,85.7107
2024-05-09T06:30:34.902Z,85.7121
2024-05-09T06:31:27.010Z,85.7148
2024-05-09T06:32:29.321Z,85.6934
2024-05-09T06:33:29.585Z,85.6764
2024-05-09T06:34:29.783Z,85.6578
2024-05-09T06:35:29.858Z,85.6318
2024-05-09T06:36:30.402Z,85.6236
2024-05-09T06:37:30.303Z,85.6056
2024-05-09T06:38:32.591Z,85.5799
2024-05-09T06:39:32.543Z,85.5440
2024-05-09T06:40:38.323Z,85.5136
2024-05-09T06:41:35.849Z,85.4686
2024-05-09T06:42:38.070Z,85.4378
2024-05-09T06:43:40.131Z,85.4110
2024-05-09T06:44:42.291Z,85.3770
2024-05-09T06:45:44.481Z,85.3346
2024-05-09T06:46:46.868Z,85.2736
2024-05-09T06:47:46.954Z,85.2413
2024-05-09T06:48:50.503Z,85.2113
2024-05-09T06:49:50.623Z,85.1869
2024-05-09T06:50:50.726Z,85.1471
2024-05-09T06:51:50.751Z,85.0863
2024-05-09T06:52:52.915Z,85.0081
2024-05-09T06:53:55.067Z,84.9595
2024-05-09T06:54:57.356Z,84.9172
2024-05-09T06:55:59.630Z,84.8583
2024-05-09T06:57:01.932Z,84.8617
2024-05-09T06:58:03.993Z,84.7477
2024-05-09T06:59:06.325Z,84.3597
2024-05-09T07:00:15.466Z,84.3756
2024-05-09T07:01:09.600Z,84.5324
2024-05-09T07:02:09.635Z,84.6009
2024-05-09T07:03:10.078Z,84.6188
2024-05-09T07:04:11.303Z,84.6065
2024-05-09T07:05:11.627Z,84.5832
2024-05-09T07:06:11.656Z,84.5514
2024-05-09T07:07:14.045Z,84.5304
2024-05-09T07:08:16.554Z,84.4959
2024-05-09T07:09:16.789Z,84.4577
2024-05-09T07:10:22.143Z,84.2456
2024-05-09T07:11:18.025Z,84.1647
2024-05-09T07:12:19.090Z,84.1620
2024-05-09T07:13:19.107Z,84.1080
2024-05-09T07:14:21.552Z,84.0349
2024-05-09T07:15:21.795Z,83.9024
2024-05-09T07:16:21.800Z,83.7862
2024-05-09T07:17:24.240Z,83.7596
2024-05-09T07:18:24.504Z,83.7760
2024-05-09T07:19:25.012Z,83.7869
2024-05-09T07:20:32.491Z,83.7484
2024-05-09T07:21:26.093Z,83.6606
2024-05-09T07:22:25.976Z,83.5898
2024-05-09T07:23:26.044Z,83.5812
2024-05-09T07:24:26.042Z,83.6316
2024-05-09T07:25:28.369Z,83.6593
2024-05-09T07:26:28.329Z,83.6683
2024-05-09T07:27:29.916Z,83.6263
2024-05-09T07:28:30.073Z,83.5127
2024-05-09T07:29:34.714Z,83.3773
2024-05-09T07:30:34.765Z,83.1763
2024-05-09T07:31:35.162Z,82.9860
2024-05-09T07:32:37.567Z,82.7951
2024-05-09T07:33:38.570Z,82.6855
2024-05-09T07:34:38.634Z,82.6674
2024-05-09T07:35:38.839Z,82.6189
2024-05-09T07:36:39.886Z,82.5110
2024-05-09T07:37:42.215Z,82.3936
2024-05-09T07:38:42.242Z,82.3994
2024-05-09T07:39:42.552Z,82.3848
2024-05-09T07:40:42.575Z,82.3606
2024-05-09T07:41:44.912Z,82.3449
2024-05-09T07:42:44.995Z,82.2725
2024-05-09T07:43:47.329Z,82.1135
2024-05-09T07:44:49.573Z,81.9469
2024-05-09T07:45:54.468Z,81.7366
2024-05-09T07:48:13.727Z,81.4899
2024-05-09T07:50:34.746Z,81.1442
2024-05-09T07:53:22.002Z,81.0409
2024-05-09T07:54:01.395Z,80.9270
2024-05-09T07:55:02.035Z,80.9290
2024-05-09T07:56:02.171Z,80.8565
2024-05-09T07:57:03.385Z,80.8142
2024-05-09T07:58:03.485Z,80.8684
2024-05-09T07:59:05.812Z,80.8912
2024-05-09T08:00:06.680Z,80.8965
2024-05-09T08:01:07.043Z,80.8350
2024-05-09T08:02:07.086Z,80.7177
2024-05-09T08:03:07.013Z,80.5074
2024-05-09T08:04:09.274Z,80.4551
2024-05-09T08:05:09.388Z,79.6892
2024-05-09T08:06:10.390Z,79.2562
2024-05-09T08:07:12.697Z,79.6533
2024-05-09T08:08:14.997Z,79.8366
2024-05-09T08:09:21.013Z,80.0276
2024-05-09T08:10:22.107Z,79.6888
2024-05-09T08:11:18.310Z,78.6834
2024-05-09T08:12:20.612Z,78.3895
2024-05-09T08:13:23.135Z,78.8081
2024-05-09T08:14:23.196Z,79.3124
2024-05-09T08:15:25.486Z,79.5466
2024-05-09T08:16:25.578Z,79.4956
2024-05-09T08:17:25.569Z,79.6516
2024-05-09T08:18:27.990Z,79.7774
2024-05-09T08:19:28.085Z,79.7907
2024-05-09T08:20:33.720Z,79.8064
2024-05-09T08:21:31.482Z,79.7998
2024-05-09T08:22:32.439Z,79.7100
2024-05-09T08:23:34.700Z,79.7160
2024-05-09T08:24:36.984Z,79.7209
2024-05-09T08:25:39.196Z,79.5787
2024-05-09T08:26:41.466Z,79.3594
2024-05-09T08:27:42.555Z,79.3105
2024-05-09T08:28:42.416Z,79.3723
2024-05-09T08:29:44.713Z,79.3781
2024-05-09T08:30:44.840Z,79.3641
2024-05-09T08:31:45.839Z,79.3372
2024-05-09T08:32:48.353Z,79.3258
2024-05-09T08:33:48.668Z,79.3366
2024-05-09T08:34:48.721Z,79.3411
2024-05-09T08:35:50.024Z,79.3522
2024-05-09T08:36:52.376Z,79.3806
2024-05-09T08:37:53.069Z,79.3810
2024-05-09T08:38:53.062Z,79.3415
2024-05-09T08:39:53.204Z,79.2977
2024-05-09T08:40:55.593Z,79.2890
2024-05-09T08:41:55.650Z,79.2744
2024-05-09T08:42:57.874Z,79.2283
2024-05-09T08:44:00.121Z,79.1449
2024-05-09T08:45:02.303Z,79.0695
2024-05-09T08:46:02.393Z,78.9356
2024-05-09T08:47:02.981Z,78.8764
2024-05-09T08:48:05.421Z,78.9934
2024-05-09T08:49:06.058Z,79.0463
2024-05-09T08:50:08.570Z,78.8343
2024-05-09T08:51:06.583Z,78.9337
2024-05-09T08:52:07.546Z,78.9473
2024-05-09T08:53:07.856Z,78.9089
2024-05-09T08:54:07.937Z,78.8456
2024-05-09T08:55:10.363Z,78.8180
2024-05-09T08:56:10.502Z,78.6424
2024-05-09T08:57:12.721Z,78.4237
2024-05-09T08:58:15.353Z,78.4152
2024-05-09T08:59:16.168Z,78.4123
2024-05-09T09:00:29.049Z,78.1876
2024-05-09T09:01:19.702Z,77.9489
2024-05-09T09:02:21.293Z,77.8612
2024-05-09T09:03:21.850Z,77.9075
2024-05-09T09:04:24.259Z,77.9591
2024-05-09T09:05:24.426Z,77.7495
2024-05-09T09:06:24.357Z,77.5094
2024-05-09T09:07:26.784Z,77.3470
2024-05-09T09:08:27.683Z,77.2470
2024-05-09T09:09:27.996Z,77.0553
2024-05-09T09:10:32.360Z,77.2421
2024-05-09T09:11:30.827Z,77.1853
2024-05-09T09:12:33.107Z,77.2643
2024-05-09T09:13:35.350Z,77.3564
2024-05-09T09:14:37.596Z,77.1172
2024-05-09T09:15:37.664Z,76.9168
2024-05-09T09:16:39.938Z,76.6816
2024-05-09T09:17:42.387Z,76.8089
2024-05-09T09:18:42.644Z,76.8903
2024-05-09T09:19:42.584Z,76.8295
2024-05-09T09:20:45.005Z,76.9069
2024-05-09T09:21:45.060Z,76.9962
2024-05-09T09:22:45.122Z,76.8876
2024-05-09T09:23:47.527Z,76.8203
2024-05-09T09:24:49.724Z,76.5631
2024-05-09T09:25:50.863Z,76.3118
2024-05-09T09:26:51.713Z,76.0584
2024-05-09T09:27:53.991Z,75.9717
2024-05-09T09:28:54.037Z,75.9768
2024-05-09T09:29:56.322Z,75.9324
2024-05-09T09:30:56.238Z,75.8051
2024-05-09T09:31:58.466Z,75.5886
2024-05-09T09:33:01.009Z,75.5994
2024-05-09T09:34:01.283Z,75.8924
2024-05-09T09:35:01.395Z,75.9430
2024-05-09T09:36:01.531Z,75.7099
2024-05-09T09:37:03.823Z,75.4012
2024-05-09T09:38:03.823Z,75.2529
2024-05-09T09:39:06.062Z,75.1745
2024-05-09T09:40:08.949Z,75.0343
2024-05-09T09:41:08.895Z,74.9479
2024-05-09T09:42:09.804Z,74.6408
2024-05-09T09:43:12.212Z,74.4162
2024-05-09T09:44:12.279Z,74.5141
2024-05-09T09:45:14.632Z,74.3702
2024-05-09T09:46:17.121Z,74.3313
2024-05-09T09:47:17.373Z,74.2654
2024-05-09T09:48:19.748Z,74.1883
2024-05-09T09:49:21.538Z,74.2754
2024-05-09T09:50:27.706Z,74.1172
2024-05-09T09:51:22.620Z,73.8861
2024-05-09T09:52:23.028Z,73.6749
2024-05-09T09:53:22.931Z,73.6465
2024-05-09T09:54:25.231Z,73.3797
2024-05-09T09:55:26.062Z,72.9547
2024-05-09T09:56:25.959Z,72.6413
2024-05-09T09:57:26.221Z,72.7065
2024-05-09T09:58:28.563Z,72.6997
2024-05-09T09:59:28.524Z,73.0512
2024-05-09T10:00:33.290Z,73.2342
2024-05-09T10:01:31.911Z,73.1972
2024-05-09T10:02:32.172Z,72.9370
2024-05-09T10:03:32.342Z,72.8616
2024-05-09T10:04:33.417Z,73.1862
2024-05-09T10:05:33.717Z,73.1047
2024-05-09T10:06:33.755Z,72.3584
2024-05-09T10:07:35.924Z,71.6226
2024-05-09T10:08:38.038Z,71.1822
2024-05-09T10:09:40.283Z,71.8089
2024-05-09T10:10:42.690Z,71.6201
2024-05-09T10:12:44.854Z,70.3974
2024-05-09T10:13:47.071Z,70.7549
2024-05-09T10:14:49.367Z,70.7348
2024-05-09T10:15:52.146Z,70.4895
2024-05-09T10:16:52.295Z,70.2940
2024-05-09T10:17:54.712Z,70.1036
2024-05-09T10:18:54.822Z,69.3455
2024-05-09T10:19:54.864Z,69.2603
2024-05-09T10:20:54.932Z,68.4741
2024-05-09T10:21:57.258Z,68.2966
2024-05-09T10:22:57.328Z,67.9095
2024-05-09T10:23:57.645Z,67.4724
2024-05-09T10:25:01.505Z,67.4075
2024-05-09T10:26:03.790Z,67.3082
2024-05-09T10:27:03.616Z,67.2397
2024-05-09T10:28:04.135Z,66.7931
2024-05-09T10:29:06.439Z,66.5040
2024-05-09T10:30:14.412Z,66.1692
2024-05-09T10:31:09.701Z,66.0616
2024-05-09T10:32:11.920Z,65.9635
2024-05-09T10:33:13.008Z,65.7887
2024-05-09T10:34:13.172Z,65.7735
2024-05-09T10:35:13.146Z,65.7461
2024-05-09T10:36:13.319Z,65.7076
2024-05-09T10:37:15.695Z,65.5469
2024-05-09T10:38:15.637Z,65.6563
2024-05-09T10:39:16.014Z,66.2004
2024-05-09T10:40:25.778Z,65.9445
2024-05-09T10:41:19.112Z,65.0929
2024-05-09T10:42:21.311Z,65.0302
2024-05-09T10:43:21.336Z,65.3684
2024-05-09T10:44:21.153Z,65.3231
2024-05-09T10:45:23.487Z,64.8686
2024-05-09T10:46:25.759Z,64.9481
2024-05-09T10:47:28.199Z,64.5581
2024-05-09T10:48:29.323Z,64.3904
2024-05-09T10:49:29.267Z,64.9368
2024-05-09T10:50:34.238Z,65.1250
2024-05-09T10:51:33.226Z,64.7480
2024-05-09T10:52:35.519Z,64.1834
2024-05-09T10:53:37.859Z,64.6136
2024-05-09T10:54:37.894Z,64.0899
2024-05-09T10:55:37.881Z,63.1257
2024-05-09T10:56:37.768Z,64.5525
2024-05-09T10:57:39.986Z,65.0632
2024-05-09T10:58:42.401Z,65.3344
2024-05-09T10:59:42.371Z,65.3966
2024-05-09T11:00:44.794Z,65.2164
2024-05-09T11:01:45.018Z,65.0640
2024-05-09T11:02:45.053Z,65.1718
2024-05-09T11:03:47.572Z,65.3200
2024-05-09T11:04:47.951Z,65.2056
2024-05-09T11:05:47.997Z,64.9287
2024-05-09T11:06:48.073Z,64.7327
2024-05-09T11:07:50.570Z,64.0374
2024-05-09T11:08:50.486Z,63.9032
2024-05-09T11:09:52.903Z,64.0462
2024-05-09T11:10:53.039Z,63.3359
2024-05-09T11:11:53.226Z,63.1230
2024-05-09T11:12:53.293Z,63.0101
2024-05-09T11:13:55.546Z,63.5892
2024-05-09T11:14:57.860Z,63.4990
2024-05-09T11:16:00.179Z,62.6902
2024-05-09T11:17:00.276Z,63.0292
2024-05-09T11:18:02.782Z,62.5940
2024-05-09T11:19:04.916Z,62.3636
2024-05-09T11:20:10.773Z,62.8300
2024-05-09T11:21:06.106Z,63.2090
2024-05-09T11:22:08.570Z,63.4344
2024-05-09T11:23:08.578Z,62.8632
2024-05-09T11:24:11.482Z,61.9513
2024-05-09T11:25:11.853Z,61.3886
2024-05-09T11:26:12.590Z,61.4665
2024-05-09T11:27:12.522Z,60.3330
2024-05-09T11:28:15.046Z,60.0857
2024-05-09T11:29:17.935Z,59.3912
2024-05-09T11:30:24.190Z,59.4383
2024-05-09T11:31:18.255Z,59.5609
2024-05-09T11:32:18.302Z,59.7227
2024-05-09T11:33:19.220Z,59.7719
2024-05-09T11:34:19.373Z,59.8788
2024-05-09T11:35:19.637Z,59.9498
2024-05-09T11:36:19.555Z,60.1847
2024-05-09T11:37:19.635Z,60.5429
2024-05-09T11:38:19.584Z,60.5483
2024-05-09T11:39:21.779Z,60.2782
2024-05-09T11:40:26.035Z,60.5310
2024-05-09T11:41:25.076Z,59.5032
2024-05-09T11:42:25.206Z,58.8475
2024-05-09T11:43:25.475Z,59.3636
2024-05-09T11:44:25.341Z,59.9514
2024-05-09T11:45:27.554Z,60.3274
2024-05-09T11:46:29.703Z,60.2425
2024-05-09T11:47:32.075Z,60.6334
2024-05-09T11:48:32.331Z,60.6129
2024-05-09T11:49:32.613Z,60.3770
2024-05-09T11:50:35.498Z,59.9606
2024-05-09T11:51:33.432Z,59.5590
2024-05-09T11:52:35.665Z,59.8277
2024-05-09T11:53:37.818Z,60.2156
2024-05-09T11:54:40.114Z,59.0160
2024-05-09T11:55:42.284Z,58.6396
2024-05-09T11:56:44.513Z,59.2111
2024-05-09T11:57:46.848Z,59.3060
2024-05-09T11:58:47.136Z,59.5090
2024-05-09T11:59:50.061Z,59.4596
2024-05-09T12:00:50.044Z,59.3259
2024-05-09T12:01:50.295Z,59.2556
2024-05-09T12:02:50.318Z,59.2310
2024-05-09T12:03:52.743Z,59.0042
2024-05-09T12:04:52.814Z,58.7450
2024-05-09T12:05:55.060Z,58.9016
2024-05-09T12:06:57.326Z,58.8655
2024-05-09T12:07:59.450Z,58.8091
2024-05-09T12:09:01.622Z,58.8199
2024-05-09T12:10:06.080Z,58.6854
2024-05-09T12:11:05.753Z,58.7624
2024-05-09T12:12:08.038Z,59.2528
2024-05-09T12:13:10.400Z,59.4997
2024-05-09T12:14:12.676Z,59.8598
2024-05-09T12:15:14.996Z,60.0637
2024-05-09T12:16:17.301Z,59.7424
2024-05-09T12:17:19.609Z,59.5121
2024-05-09T12:18:21.801Z,59.1545
2024-05-09T12:19:24.049Z,59.2415
2024-05-09T12:20:34.727Z,59.5166
2024-05-09T12:21:27.285Z,59.2823
2024-05-09T12:22:29.455Z,58.6980
2024-05-09T12:23:31.641Z,58.9817
2024-05-09T12:24:33.872Z,59.1426
2024-05-09T12:25:36.970Z,58.7315
2024-05-09T12:26:39.133Z,59.1399